sensor_id;sensor_type;location;lat;lon;timestamp;temperature;humidity
17956;DHT22;27666;51.498;11.966;2023-05-03T00:00:41;7.80;99.90
17956;DHT22;27666;51.498;11.966;2023-05-03T00:03:28;7.80;99.90
17956;DHT22;27666;51.498;11.966;2023-05-03T00:06:15;7.80;99.90
17956;DHT22;27666;51.498;11.966;2023-05-03T00:09:02;7.70;99.90
17956;DHT22;27666;51.498;11.966;2023-05-03T00:11:49;7.70;99.90
17956;DHT22;27666;51.498;11.966;2023-05-03T00:14:37;7.70;99.90
17956;DHT22;27666;51.498;11.966;2023-05-03T00:17:24;7.70;99.90
17956;DHT22;27666;51.498;11.966;2023-05-03T00:20:11;7.70;99.90
17956;DHT22;27666;51.498;11.966;2023-05-03T00:22:59;7.70;99.90
17956;DHT22;27666;51.498;11.966;2023-05-03T00:25:46;7.70;99.90
17956;DHT22;27666;51.498;11.966;2023-05-03T00:28:38;7.70;99.90
17956;DHT22;27666;51.498;11.966;2023-05-03T00:31:24;7.70;99.90
17956;DHT22;27666;51.498;11.966;2023-05-03T00:34:11;7.60;99.90
17956;DHT22;27666;51.498;11.966;2023-05-03T00:36:57;7.60;99.90
17956;DHT22;27666;51.498;11.966;2023-05-03T00:39:44;7.60;99.90
17956;DHT22;27666;51.498;11.966;2023-05-03T00:42:32;7.50;99.90
17956;DHT22;27666;51.498;11.966;2023-05-03T00:45:20;7.50;99.90
17956;DHT22;27666;51.498;11.966;2023-05-03T00:48:07;7.50;99.90
17956;DHT22;27666;51.498;11.966;2023-05-03T00:50:54;7.40;99.90
17956;DHT22;27666;51.498;11.966;2023-05-03T00:53:42;7.30;99.90
17956;DHT22;27666;51.498;11.966;2023-05-03T00:56:29;7.30;99.90
17956;DHT22;27666;51.498;11.966;2023-05-03T00:59:36;7.30;99.90
17956;DHT22;27666;51.498;11.966;2023-05-03T01:02:24;7.30;99.90
17956;DHT22;27666;51.498;11.966;2023-05-03T01:05:11;7.30;99.90
17956;DHT22;27666;51.498;11.966;2023-05-03T01:08:03;7.30;99.90
17956;DHT22;27666;51.498;11.966;2023-05-03T01:10:58;7.30;99.90
17956;DHT22;27666;51.498;11.966;2023-05-03T01:13:52;7.30;99.90
17956;DHT22;27666;51.498;11.966;2023-05-03T01:16:45;7.30;99.90
17956;DHT22;27666;51.498;11.966;2023-05-03T01:19:38;7.20;99.90
17956;DHT22;27666;51.498;11.966;2023-05-03T01:22:32;7.20;99.90
17956;DHT22;27666;51.498;11.966;2023-05-03T01:25:24;7.20;99.90
17956;DHT22;27666;51.498;11.966;2023-05-03T01:28:10;7.20;99.90
17956;DHT22;27666;51.498;11.966;2023-05-03T01:30:58;7.10;99.90
17956;DHT22;27666;51.498;11.966;2023-05-03T01:33:52;7.10;99.90
17956;DHT22;27666;51.498;11.966;2023-05-03T01:36:43;7.10;99.90
17956;DHT22;27666;51.498;11.966;2023-05-03T01:39:36;7.00;99.90
17956;DHT22;27666;51.498;11.966;2023-05-03T01:42:25;7.00;99.90
17956;DHT22;27666;51.498;11.966;2023-05-03T01:45:16;6.90;99.90
17956;DHT22;27666;51.498;11.966;2023-05-03T01:48:08;7.00;99.90
17956;DHT22;27666;51.498;11.966;2023-05-03T01:50:55;6.90;99.90
17956;DHT22;27666;51.498;11.966;2023-05-03T01:53:42;6.90;99.90
17956;DHT22;27666;51.498;11.966;2023-05-03T01:56:32;6.90;99.90
17956;DHT22;27666;51.498;11.966;2023-05-03T01:59:20;6.90;99.90
17956;DHT22;27666;51.498;11.966;2023-05-03T02:02:07;7.00;99.90
17956;DHT22;27666;51.498;11.966;2023-05-03T02:04:53;6.90;99.90
17956;DHT22;27666;51.498;11.966;2023-05-03T02:07:40;6.80;99.90
17956;DHT22;27666;51.498;11.966;2023-05-03T02:10:26;6.80;99.90
17956;DHT22;27666;51.498;11.966;2023-05-03T02:13:13;6.80;99.90
17956;DHT22;27666;51.498;11.966;2023-05-03T02:16:02;6.80;99.90
17956;DHT22;27666;51.498;11.966;2023-05-03T02:18:48;6.80;99.90
17956;DHT22;27666;51.498;11.966;2023-05-03T02:21:36;6.80;99.90
17956;DHT22;27666;51.498;11.966;2023-05-03T02:24:23;6.70;99.90
17956;DHT22;27666;51.498;11.966;2023-05-03T02:27:09;6.70;99.90
17956;DHT22;27666;51.498;11.966;2023-05-03T02:29:56;6.70;99.90
17956;DHT22;27666;51.498;11.966;2023-05-03T02:32:44;6.60;99.90
17956;DHT22;27666;51.498;11.966;2023-05-03T02:35:31;6.50;99.90
17956;DHT22;27666;51.498;11.966;2023-05-03T02:38:17;6.50;99.90
17956;DHT22;27666;51.498;11.966;2023-05-03T02:41:04;6.50;99.90
17956;DHT22;27666;51.498;11.966;2023-05-03T02:43:50;6.40;99.90
17956;DHT22;27666;51.498;11.966;2023-05-03T02:46:37;6.30;99.90
17956;DHT22;27666;51.498;11.966;2023-05-03T02:49:26;6.40;99.90
17956;DHT22;27666;51.498;11.966;2023-05-03T02:52:13;6.40;99.90
17956;DHT22;27666;51.498;11.966;2023-05-03T02:54:59;6.30;99.90
17956;DHT22;27666;51.498;11.966;2023-05-03T02:57:46;6.40;99.90
17956;DHT22;27666;51.498;11.966;2023-05-03T03:00:32;6.30;99.90
17956;DHT22;27666;51.498;11.966;2023-05-03T03:03:19;6.30;99.90
17956;DHT22;27666;51.498;11.966;2023-05-03T03:06:07;6.30;99.90
17956;DHT22;27666;51.498;11.966;2023-05-03T03:08:54;6.30;99.90
17956;DHT22;27666;51.498;11.966;2023-05-03T03:11:40;6.20;99.90
17956;DHT22;27666;51.498;11.966;2023-05-03T03:14:27;6.20;99.90
17956;DHT22;27666;51.498;11.966;2023-05-03T03:17:13;6.10;99.90
17956;DHT22;27666;51.498;11.966;2023-05-03T03:20:00;6.10;99.90
17956;DHT22;27666;51.498;11.966;2023-05-03T03:22:51;6.10;99.90
17956;DHT22;27666;51.498;11.966;2023-05-03T03:25:38;6.00;99.90
17956;DHT22;27666;51.498;11.966;2023-05-03T03:28:24;6.00;99.90
17956;DHT22;27666;51.498;11.966;2023-05-03T03:31:11;5.90;99.90
17956;DHT22;27666;51.498;11.966;2023-05-03T03:33:57;6.00;99.90
17956;DHT22;27666;51.498;11.966;2023-05-03T03:36:44;6.00;99.90
17956;DHT22;27666;51.498;11.966;2023-05-03T03:39:32;6.10;99.90
17956;DHT22;27666;51.498;11.966;2023-05-03T03:42:18;6.00;99.90
17956;DHT22;27666;51.498;11.966;2023-05-03T03:45:07;5.90;99.90
17956;DHT22;27666;51.498;11.966;2023-05-03T03:47:53;6.00;99.90
17956;DHT22;27666;51.498;11.966;2023-05-03T03:50:42;6.00;99.90
17956;DHT22;27666;51.498;11.966;2023-05-03T03:53:29;6.00;99.90
17956;DHT22;27666;51.498;11.966;2023-05-03T03:56:17;6.00;99.90
17956;DHT22;27666;51.498;11.966;2023-05-03T03:59:03;6.00;99.90
17956;DHT22;27666;51.498;11.966;2023-05-03T04:01:50;6.10;99.90
17956;DHT22;27666;51.498;11.966;2023-05-03T04:04:37;6.20;99.90
17956;DHT22;27666;51.498;11.966;2023-05-03T04:07:24;6.20;99.90
17956;DHT22;27666;51.498;11.966;2023-05-03T04:10:10;6.30;99.90
17956;DHT22;27666;51.498;11.966;2023-05-03T04:12:58;6.30;99.90
17956;DHT22;27666;51.498;11.966;2023-05-03T04:15:44;6.30;99.90
17956;DHT22;27666;51.498;11.966;2023-05-03T04:18:30;6.40;99.90
17956;DHT22;27666;51.498;11.966;2023-05-03T04:21:17;6.40;99.90
17956;DHT22;27666;51.498;11.966;2023-05-03T04:24:05;6.60;99.90
17956;DHT22;27666;51.498;11.966;2023-05-03T04:26:52;6.60;99.90
17956;DHT22;27666;51.498;11.966;2023-05-03T04:29:39;6.70;99.90
17956;DHT22;27666;51.498;11.966;2023-05-03T04:32:26;6.90;99.90
17956;DHT22;27666;51.498;11.966;2023-05-03T04:35:13;7.00;99.90
17956;DHT22;27666;51.498;11.966;2023-05-03T04:38:01;7.20;99.90
17956;DHT22;27666;51.498;11.966;2023-05-03T04:40:49;7.30;99.90
17956;DHT22;27666;51.498;11.966;2023-05-03T04:43:35;7.60;99.90
17956;DHT22;27666;51.498;11.966;2023-05-03T04:46:24;7.90;99.90
17956;DHT22;27666;51.498;11.966;2023-05-03T04:49:10;8.10;99.90
17956;DHT22;27666;51.498;11.966;2023-05-03T04:51:57;8.30;99.90
17956;DHT22;27666;51.498;11.966;2023-05-03T04:54:43;8.60;99.90
17956;DHT22;27666;51.498;11.966;2023-05-03T04:57:32;8.70;99.90
17956;DHT22;27666;51.498;11.966;2023-05-03T05:00:18;8.90;99.90
17956;DHT22;27666;51.498;11.966;2023-05-03T05:03:08;9.10;99.90
17956;DHT22;27666;51.498;11.966;2023-05-03T05:05:54;9.20;99.90
17956;DHT22;27666;51.498;11.966;2023-05-03T05:08:41;9.60;99.90
17956;DHT22;27666;51.498;11.966;2023-05-03T05:11:27;9.60;99.90
17956;DHT22;27666;51.498;11.966;2023-05-03T05:14:14;9.90;99.90
17956;DHT22;27666;51.498;11.966;2023-05-03T05:17:00;10.10;99.90
17956;DHT22;27666;51.498;11.966;2023-05-03T05:19:48;10.30;99.90
17956;DHT22;27666;51.498;11.966;2023-05-03T05:22:35;10.30;99.90
17956;DHT22;27666;51.498;11.966;2023-05-03T05:25:21;10.60;99.90
17956;DHT22;27666;51.498;11.966;2023-05-03T05:28:08;10.90;99.90
17956;DHT22;27666;51.498;11.966;2023-05-03T05:30:55;11.40;99.90
17956;DHT22;27666;51.498;11.966;2023-05-03T05:33:42;11.60;99.90
17956;DHT22;27666;51.498;11.966;2023-05-03T05:36:30;11.90;99.90
17956;DHT22;27666;51.498;11.966;2023-05-03T05:39:17;12.20;99.90
17956;DHT22;27666;51.498;11.966;2023-05-03T05:42:03;12.40;99.90
17956;DHT22;27666;51.498;11.966;2023-05-03T05:44:50;12.70;99.90
17956;DHT22;27666;51.498;11.966;2023-05-03T05:47:37;13.00;99.90
17956;DHT22;27666;51.498;11.966;2023-05-03T05:50:23;13.40;99.90
17956;DHT22;27666;51.498;11.966;2023-05-03T05:53:12;13.80;99.90
17956;DHT22;27666;51.498;11.966;2023-05-03T05:55:58;14.00;99.70
17956;DHT22;27666;51.498;11.966;2023-05-03T05:58:44;14.30;99.30
17956;DHT22;27666;51.498;11.966;2023-05-03T06:01:31;14.80;97.90
17956;DHT22;27666;51.498;11.966;2023-05-03T06:04:17;15.30;96.70
17956;DHT22;27666;51.498;11.966;2023-05-03T06:07:05;15.90;95.60
17956;DHT22;27666;51.498;11.966;2023-05-03T06:09:53;16.30;94.60
17956;DHT22;27666;51.498;11.966;2023-05-03T06:12:39;17.00;93.30
17956;DHT22;27666;51.498;11.966;2023-05-03T06:18:13;18.30;90.10
17956;DHT22;27666;51.498;11.966;2023-05-03T06:21:00;19.20;86.30
17956;DHT22;27666;51.498;11.966;2023-05-03T06:23:46;20.00;84.20
17956;DHT22;27666;51.498;11.966;2023-05-03T06:26:34;20.70;81.70
17956;DHT22;27666;51.498;11.966;2023-05-03T06:29:21;21.20;79.20
17956;DHT22;27666;51.498;11.966;2023-05-03T06:32:07;21.50;76.10
17956;DHT22;27666;51.498;11.966;2023-05-03T06:37:43;21.60;71.60
17956;DHT22;27666;51.498;11.966;2023-05-03T06:40:30;21.70;72.40
17956;DHT22;27666;51.498;11.966;2023-05-03T06:43:19;21.80;71.40
17956;DHT22;27666;51.498;11.966;2023-05-03T06:46:06;21.60;70.60
17956;DHT22;27666;51.498;11.966;2023-05-03T06:48:53;21.10;68.90
17956;DHT22;27666;51.498;11.966;2023-05-03T06:51:41;20.40;69.90
17956;DHT22;27666;51.498;11.966;2023-05-03T06:54:28;20.30;70.60
17956;DHT22;27666;51.498;11.966;2023-05-03T06:57:14;20.00;70.20
17956;DHT22;27666;51.498;11.966;2023-05-03T07:00:02;19.90;71.20
17956;DHT22;27666;51.498;11.966;2023-05-03T07:02:51;19.40;70.90
17956;DHT22;27666;51.498;11.966;2023-05-03T07:05:38;19.30;68.80
17956;DHT22;27666;51.498;11.966;2023-05-03T07:08:24;18.80;69.10
17956;DHT22;27666;51.498;11.966;2023-05-03T07:11:11;18.20;70.00
17956;DHT22;27666;51.498;11.966;2023-05-03T07:13:57;17.70;71.10
17956;DHT22;27666;51.498;11.966;2023-05-03T07:16:45;17.40;71.00
17956;DHT22;27666;51.498;11.966;2023-05-03T07:19:32;17.10;73.30
17956;DHT22;27666;51.498;11.966;2023-05-03T07:22:18;17.50;74.60
17956;DHT22;27666;51.498;11.966;2023-05-03T07:25:09;17.90;72.40
17956;DHT22;27666;51.498;11.966;2023-05-03T07:27:58;18.00;70.80
17956;DHT22;27666;51.498;11.966;2023-05-03T07:30:44;18.40;70.80
17956;DHT22;27666;51.498;11.966;2023-05-03T07:33:34;18.40;70.00
17956;DHT22;27666;51.498;11.966;2023-05-03T07:36:22;18.70;70.80
17956;DHT22;27666;51.498;11.966;2023-05-03T07:39:08;18.80;70.60
17956;DHT22;27666;51.498;11.966;2023-05-03T07:41:55;19.00;68.40
17956;DHT22;27666;51.498;11.966;2023-05-03T07:44:41;19.10;68.00
17956;DHT22;27666;51.498;11.966;2023-05-03T07:47:27;19.10;69.10
17956;DHT22;27666;51.498;11.966;2023-05-03T07:50:16;19.30;68.40
17956;DHT22;27666;51.498;11.966;2023-05-03T07:53:02;18.80;67.40
17956;DHT22;27666;51.498;11.966;2023-05-03T07:55:52;18.00;68.90
17956;DHT22;27666;51.498;11.966;2023-05-03T07:58:39;17.70;70.90
17956;DHT22;27666;51.498;11.966;2023-05-03T08:01:29;17.40;70.90
17956;DHT22;27666;51.498;11.966;2023-05-03T08:04:15;17.40;70.00
17956;DHT22;27666;51.498;11.966;2023-05-03T08:07:03;17.60;70.90
17956;DHT22;27666;51.498;11.966;2023-05-03T08:09:50;17.70;71.80
17956;DHT22;27666;51.498;11.966;2023-05-03T08:12:38;17.60;71.90
17956;DHT22;27666;51.498;11.966;2023-05-03T08:15:24;17.80;71.40
17956;DHT22;27666;51.498;11.966;2023-05-03T08:18:14;18.20;70.80
17956;DHT22;27666;51.498;11.966;2023-05-03T08:21:00;18.50;70.30
17956;DHT22;27666;51.498;11.966;2023-05-03T08:23:48;18.80;69.30
17956;DHT22;27666;51.498;11.966;2023-05-03T08:26:35;19.00;70.10
17956;DHT22;27666;51.498;11.966;2023-05-03T08:29:22;18.70;68.00
17956;DHT22;27666;51.498;11.966;2023-05-03T08:32:11;18.40;69.30
17956;DHT22;27666;51.498;11.966;2023-05-03T08:34:58;18.40;70.40
17956;DHT22;27666;51.498;11.966;2023-05-03T08:37:45;18.90;70.60
17956;DHT22;27666;51.498;11.966;2023-05-03T08:40:32;19.50;68.90
17956;DHT22;27666;51.498;11.966;2023-05-03T08:43:23;19.50;68.40
17956;DHT22;27666;51.498;11.966;2023-05-03T08:46:12;19.40;68.50
17956;DHT22;27666;51.498;11.966;2023-05-03T08:49:00;18.90;68.00
17956;DHT22;27666;51.498;11.966;2023-05-03T08:51:47;18.70;68.70
17956;DHT22;27666;51.498;11.966;2023-05-03T08:54:34;18.60;69.50
17956;DHT22;27666;51.498;11.966;2023-05-03T08:57:23;18.60;67.60
17956;DHT22;27666;51.498;11.966;2023-05-03T09:00:10;18.80;68.50
17956;DHT22;27666;51.498;11.966;2023-05-03T09:02:57;19.40;69.40
17956;DHT22;27666;51.498;11.966;2023-05-03T09:05:44;19.70;66.80
17956;DHT22;27666;51.498;11.966;2023-05-03T09:08:41;19.40;65.00
17956;DHT22;27666;51.498;11.966;2023-05-03T09:11:29;19.00;66.20
17956;DHT22;27666;51.498;11.966;2023-05-03T09:14:20;18.70;66.80
17956;DHT22;27666;51.498;11.966;2023-05-03T09:17:13;18.40;68.00
17956;DHT22;27666;51.498;11.966;2023-05-03T09:20:00;17.90;67.50
17956;DHT22;27666;51.498;11.966;2023-05-03T09:22:50;17.60;69.00
17956;DHT22;27666;51.498;11.966;2023-05-03T09:25:41;17.50;69.20
17956;DHT22;27666;51.498;11.966;2023-05-03T09:28:28;17.80;70.80
17956;DHT22;27666;51.498;11.966;2023-05-03T09:31:16;18.60;70.60
17956;DHT22;27666;51.498;11.966;2023-05-03T09:34:20;18.90;68.70
17956;DHT22;27666;51.498;11.966;2023-05-03T09:37:07;18.70;69.40
17956;DHT22;27666;51.498;11.966;2023-05-03T09:40:04;17.70;68.00
17956;DHT22;27666;51.498;11.966;2023-05-03T09:43:04;16.80;70.40
17956;DHT22;27666;51.498;11.966;2023-05-03T09:45:51;16.50;70.30
17956;DHT22;27666;51.498;11.966;2023-05-03T09:48:40;16.80;71.00
17956;DHT22;27666;51.498;11.966;2023-05-03T09:51:28;17.60;70.20
17956;DHT22;27666;51.498;11.966;2023-05-03T09:54:16;18.40;69.30
17956;DHT22;27666;51.498;11.966;2023-05-03T09:57:03;18.70;67.30
17956;DHT22;27666;51.498;11.966;2023-05-03T09:59:50;18.60;67.20
17956;DHT22;27666;51.498;11.966;2023-05-03T10:02:37;18.20;66.50
17956;DHT22;27666;51.498;11.966;2023-05-03T10:05:30;17.50;68.80
17956;DHT22;27666;51.498;11.966;2023-05-03T10:08:29;17.40;70.20
17956;DHT22;27666;51.498;11.966;2023-05-03T10:11:18;17.70;69.10
17956;DHT22;27666;51.498;11.966;2023-05-03T10:14:09;17.60;68.80
17956;DHT22;27666;51.498;11.966;2023-05-03T10:16:59;17.70;68.50
17956;DHT22;27666;51.498;11.966;2023-05-03T10:19:51;17.50;68.90
17956;DHT22;27666;51.498;11.966;2023-05-03T10:23:10;17.60;69.60
17956;DHT22;27666;51.498;11.966;2023-05-03T10:26:18;17.70;70.50
17956;DHT22;27666;51.498;11.966;2023-05-03T10:29:04;17.80;69.80
17956;DHT22;27666;51.498;11.966;2023-05-03T10:31:51;17.70;68.80
17956;DHT22;27666;51.498;11.966;2023-05-03T10:34:38;17.00;68.90
17956;DHT22;27666;51.498;11.966;2023-05-03T10:37:28;17.20;70.40
17956;DHT22;27666;51.498;11.966;2023-05-03T10:40:17;17.60;69.30
17956;DHT22;27666;51.498;11.966;2023-05-03T10:43:05;17.50;69.10
17956;DHT22;27666;51.498;11.966;2023-05-03T10:45:52;17.20;70.40
17956;DHT22;27666;51.498;11.966;2023-05-03T10:48:41;16.80;70.40
17956;DHT22;27666;51.498;11.966;2023-05-03T10:51:32;16.70;71.00
17956;DHT22;27666;51.498;11.966;2023-05-03T10:54:21;16.60;71.40
17956;DHT22;27666;51.498;11.966;2023-05-03T10:57:10;16.20;70.30
17956;DHT22;27666;51.498;11.966;2023-05-03T10:59:58;15.80;72.50
17956;DHT22;27666;51.498;11.966;2023-05-03T11:03:17;16.10;73.60
17956;DHT22;27666;51.498;11.966;2023-05-03T11:06:26;16.40;73.20
17956;DHT22;27666;51.498;11.966;2023-05-03T11:09:12;16.80;72.20
17956;DHT22;27666;51.498;11.966;2023-05-03T11:12:03;16.90;72.70
17956;DHT22;27666;51.498;11.966;2023-05-03T11:14:51;16.90;71.90
17956;DHT22;27666;51.498;11.966;2023-05-03T11:17:38;17.00;71.80
17956;DHT22;27666;51.498;11.966;2023-05-03T11:20:25;16.90;71.20
17956;DHT22;27666;51.498;11.966;2023-05-03T11:23:11;16.10;72.00
17956;DHT22;27666;51.498;11.966;2023-05-03T11:25:58;15.40;73.80
17956;DHT22;27666;51.498;11.966;2023-05-03T11:28:44;14.80;75.50
17956;DHT22;27666;51.498;11.966;2023-05-03T11:31:32;14.20;74.20
17956;DHT22;27666;51.498;11.966;2023-05-03T11:34:20;13.70;76.00
17956;DHT22;27666;51.498;11.966;2023-05-03T11:37:07;13.50;75.20
17956;DHT22;27666;51.498;11.966;2023-05-03T11:39:55;13.60;76.80
17956;DHT22;27666;51.498;11.966;2023-05-03T11:42:50;13.80;76.70
17956;DHT22;27666;51.498;11.966;2023-05-03T11:45:40;14.20;78.00
17956;DHT22;27666;51.498;11.966;2023-05-03T11:48:29;14.40;77.50
17956;DHT22;27666;51.498;11.966;2023-05-03T11:51:21;14.70;78.30
17956;DHT22;27666;51.498;11.966;2023-05-03T11:54:08;14.80;76.40
17956;DHT22;27666;51.498;11.966;2023-05-03T11:57:11;14.40;76.40
17956;DHT22;27666;51.498;11.966;2023-05-03T12:00:09;14.00;76.50
17956;DHT22;27666;51.498;11.966;2023-05-03T12:02:58;13.80;77.30
17956;DHT22;27666;51.498;11.966;2023-05-03T12:05:47;13.80;76.50
17956;DHT22;27666;51.498;11.966;2023-05-03T12:08:34;14.00;77.40
17956;DHT22;27666;51.498;11.966;2023-05-03T12:11:26;14.10;76.40
17956;DHT22;27666;51.498;11.966;2023-05-03T12:14:17;14.00;77.90
17956;DHT22;27666;51.498;11.966;2023-05-03T12:17:04;14.00;78.80
17956;DHT22;27666;51.498;11.966;2023-05-03T12:19:52;14.10;79.90
17956;DHT22;27666;51.498;11.966;2023-05-03T12:23:02;13.80;79.90
17956;DHT22;27666;51.498;11.966;2023-05-03T12:25:49;13.80;79.70
17956;DHT22;27666;51.498;11.966;2023-05-03T12:28:37;13.80;79.20
17956;DHT22;27666;51.498;11.966;2023-05-03T12:31:23;13.70;79.30
17956;DHT22;27666;51.498;11.966;2023-05-03T12:34:13;13.60;80.70
17956;DHT22;27666;51.498;11.966;2023-05-03T12:37:19;13.50;80.00
17956;DHT22;27666;51.498;11.966;2023-05-03T12:40:10;13.40;80.90
17956;DHT22;27666;51.498;11.966;2023-05-03T12:43:18;13.10;80.90
17956;DHT22;27666;51.498;11.966;2023-05-03T12:46:05;13.20;82.30
17956;DHT22;27666;51.498;11.966;2023-05-03T12:49:11;13.40;81.60
17956;DHT22;27666;51.498;11.966;2023-05-03T12:51:59;13.20;79.10
17956;DHT22;27666;51.498;11.966;2023-05-03T12:55:08;13.10;78.60
17956;DHT22;27666;51.498;11.966;2023-05-03T12:57:56;13.00;81.30
17956;DHT22;27666;51.498;11.966;2023-05-03T13:01:03;12.90;83.70
17956;DHT22;27666;51.498;11.966;2023-05-03T13:04:09;13.30;82.90
17956;DHT22;27666;51.498;11.966;2023-05-03T13:07:00;13.40;82.50
17956;DHT22;27666;51.498;11.966;2023-05-03T13:09:47;13.40;81.70
17956;DHT22;27666;51.498;11.966;2023-05-03T13:12:38;13.30;81.80
17956;DHT22;27666;51.498;11.966;2023-05-03T13:15:25;13.30;83.80
17956;DHT22;27666;51.498;11.966;2023-05-03T13:18:11;13.40;84.10
17956;DHT22;27666;51.498;11.966;2023-05-03T13:20:59;13.40;84.20
17956;DHT22;27666;51.498;11.966;2023-05-03T13:23:46;13.50;84.40
17956;DHT22;27666;51.498;11.966;2023-05-03T13:26:32;13.60;83.50
17956;DHT22;27666;51.498;11.966;2023-05-03T13:29:21;13.70;84.00
17956;DHT22;27666;51.498;11.966;2023-05-03T13:32:08;13.60;83.30
17956;DHT22;27666;51.498;11.966;2023-05-03T13:34:56;13.50;83.70
17956;DHT22;27666;51.498;11.966;2023-05-03T13:37:42;13.40;84.50
17956;DHT22;27666;51.498;11.966;2023-05-03T13:40:29;13.50;85.60
17956;DHT22;27666;51.498;11.966;2023-05-03T13:43:15;13.50;84.80
17956;DHT22;27666;51.498;11.966;2023-05-03T13:46:03;13.50;83.30
17956;DHT22;27666;51.498;11.966;2023-05-03T13:48:49;13.60;82.40
17956;DHT22;27666;51.498;11.966;2023-05-03T13:51:38;13.40;82.10
17956;DHT22;27666;51.498;11.966;2023-05-03T13:54:25;13.30;83.20
17956;DHT22;27666;51.498;11.966;2023-05-03T13:57:13;13.20;83.30
17956;DHT22;27666;51.498;11.966;2023-05-03T14:00:00;13.10;80.90
17956;DHT22;27666;51.498;11.966;2023-05-03T14:02:48;13.10;82.30
17956;DHT22;27666;51.498;11.966;2023-05-03T14:05:36;13.30;83.70
17956;DHT22;27666;51.498;11.966;2023-05-03T14:08:22;13.30;82.20
17956;DHT22;27666;51.498;11.966;2023-05-03T14:11:14;13.30;84.40
17956;DHT22;27666;51.498;11.966;2023-05-03T14:14:01;13.40;85.20
17956;DHT22;27666;51.498;11.966;2023-05-03T14:16:48;13.50;85.90
17956;DHT22;27666;51.498;11.966;2023-05-03T14:19:36;13.70;86.50
17956;DHT22;27666;51.498;11.966;2023-05-03T14:22:23;13.90;85.50
17956;DHT22;27666;51.498;11.966;2023-05-03T14:25:10;13.80;84.50
17956;DHT22;27666;51.498;11.966;2023-05-03T14:27:57;13.40;85.20
17956;DHT22;27666;51.498;11.966;2023-05-03T14:30:44;13.40;86.00
17956;DHT22;27666;51.498;11.966;2023-05-03T14:33:30;13.30;86.10
17956;DHT22;27666;51.498;11.966;2023-05-03T14:36:18;13.20;85.50
17956;DHT22;27666;51.498;11.966;2023-05-03T14:39:07;13.10;86.90
17956;DHT22;27666;51.498;11.966;2023-05-03T14:41:54;13.10;86.50
17956;DHT22;27666;51.498;11.966;2023-05-03T14:44:41;13.10;87.00
17956;DHT22;27666;51.498;11.966;2023-05-03T14:47:27;13.20;88.40
17956;DHT22;27666;51.498;11.966;2023-05-03T14:50:13;13.30;88.90
17956;DHT22;27666;51.498;11.966;2023-05-03T14:53:02;13.30;88.50
17956;DHT22;27666;51.498;11.966;2023-05-03T14:55:49;13.40;88.70
17956;DHT22;27666;51.498;11.966;2023-05-03T14:58:37;13.40;88.10
17956;DHT22;27666;51.498;11.966;2023-05-03T15:01:24;13.30;87.70
17956;DHT22;27666;51.498;11.966;2023-05-03T15:04:11;13.30;87.80
17956;DHT22;27666;51.498;11.966;2023-05-03T15:06:59;13.30;87.20
17956;DHT22;27666;51.498;11.966;2023-05-03T15:09:48;13.40;86.70
17956;DHT22;27666;51.498;11.966;2023-05-03T15:12:38;13.40;85.80
17956;DHT22;27666;51.498;11.966;2023-05-03T15:15:26;13.40;84.30
17956;DHT22;27666;51.498;11.966;2023-05-03T15:18:13;13.20;84.50
17956;DHT22;27666;51.498;11.966;2023-05-03T15:21:02;13.20;85.10
17956;DHT22;27666;51.498;11.966;2023-05-03T15:23:49;13.30;83.20
17956;DHT22;27666;51.498;11.966;2023-05-03T15:26:37;13.50;82.60
17956;DHT22;27666;51.498;11.966;2023-05-03T15:29:23;13.40;83.80
17956;DHT22;27666;51.498;11.966;2023-05-03T15:32:10;13.40;84.20
17956;DHT22;27666;51.498;11.966;2023-05-03T15:34:56;13.30;83.80
17956;DHT22;27666;51.498;11.966;2023-05-03T15:37:43;13.30;83.30
17956;DHT22;27666;51.498;11.966;2023-05-03T15:40:29;13.30;83.10
17956;DHT22;27666;51.498;11.966;2023-05-03T15:43:17;13.20;83.30
17956;DHT22;27666;51.498;11.966;2023-05-03T15:46:04;13.20;84.20
17956;DHT22;27666;51.498;11.966;2023-05-03T15:48:50;13.30;85.90
17956;DHT22;27666;51.498;11.966;2023-05-03T15:51:39;13.30;86.10
17956;DHT22;27666;51.498;11.966;2023-05-03T15:54:26;13.40;84.90
17956;DHT22;27666;51.498;11.966;2023-05-03T15:57:12;13.50;84.20
17956;DHT22;27666;51.498;11.966;2023-05-03T16:00:02;13.30;84.20
17956;DHT22;27666;51.498;11.966;2023-05-03T16:02:57;13.30;84.70
17956;DHT22;27666;51.498;11.966;2023-05-03T16:05:44;13.20;85.30
17956;DHT22;27666;51.498;11.966;2023-05-03T16:08:30;13.10;84.50
17956;DHT22;27666;51.498;11.966;2023-05-03T16:11:17;13.10;85.20
17956;DHT22;27666;51.498;11.966;2023-05-03T16:14:06;13.20;86.00
17956;DHT22;27666;51.498;11.966;2023-05-03T16:16:54;13.20;87.10
17956;DHT22;27666;51.498;11.966;2023-05-03T16:19:41;13.30;87.00
17956;DHT22;27666;51.498;11.966;2023-05-03T16:22:28;13.30;86.30
17956;DHT22;27666;51.498;11.966;2023-05-03T16:25:14;13.40;87.00
17956;DHT22;27666;51.498;11.966;2023-05-03T16:28:01;13.60;86.00
17956;DHT22;27666;51.498;11.966;2023-05-03T16:30:48;13.50;85.60
17956;DHT22;27666;51.498;11.966;2023-05-03T16:33:36;13.60;85.90
17956;DHT22;27666;51.498;11.966;2023-05-03T16:36:22;13.60;86.60
17956;DHT22;27666;51.498;11.966;2023-05-03T16:39:09;13.70;86.20
17956;DHT22;27666;51.498;11.966;2023-05-03T16:41:56;13.60;86.30
17956;DHT22;27666;51.498;11.966;2023-05-03T16:44:42;13.60;85.80
17956;DHT22;27666;51.498;11.966;2023-05-03T16:47:29;13.50;85.50
17956;DHT22;27666;51.498;11.966;2023-05-03T16:50:23;13.40;85.80
17956;DHT22;27666;51.498;11.966;2023-05-03T16:53:10;13.40;86.40
17956;DHT22;27666;51.498;11.966;2023-05-03T16:55:58;13.40;86.60
17956;DHT22;27666;51.498;11.966;2023-05-03T16:58:45;13.40;86.90
17956;DHT22;27666;51.498;11.966;2023-05-03T17:01:31;13.50;86.90
17956;DHT22;27666;51.498;11.966;2023-05-03T17:04:18;13.40;86.60
17956;DHT22;27666;51.498;11.966;2023-05-03T17:07:06;13.40;86.00
17956;DHT22;27666;51.498;11.966;2023-05-03T17:09:53;13.30;86.60
17956;DHT22;27666;51.498;11.966;2023-05-03T17:12:40;13.40;86.80
17956;DHT22;27666;51.498;11.966;2023-05-03T17:15:26;13.40;87.50
17956;DHT22;27666;51.498;11.966;2023-05-03T17:18:12;13.40;87.60
17956;DHT22;27666;51.498;11.966;2023-05-03T17:21:00;13.30;87.90
17956;DHT22;27666;51.498;11.966;2023-05-03T17:23:48;13.30;87.70
17956;DHT22;27666;51.498;11.966;2023-05-03T17:26:36;13.20;88.20
17956;DHT22;27666;51.498;11.966;2023-05-03T17:29:23;13.10;88.60
17956;DHT22;27666;51.498;11.966;2023-05-03T17:32:10;13.20;88.70
17956;DHT22;27666;51.498;11.966;2023-05-03T17:34:57;13.20;88.70
17956;DHT22;27666;51.498;11.966;2023-05-03T17:37:43;13.10;88.70